Time;durP1;ratioP1;P1;durP2;ratioP2;P2;SDS_P1;SDS_P2;PMS_P1;PMS_P2;Temp;Humidity;BMP_temperature;BMP_pressure;BME280_temperature;BME280_humidity;BME280_pressure;Samples;Min_cycle;Max_cycle;Signal;HPM_P1;HPM_P2
2022/06/07 00:02:24;;;;;;;10.32;6.47;;;;;;;;;;5114472;28;20201;-45
2022/06/07 00:04:53;;;;;;;8.10;7.30;;;;;;;;;;5114927;28;20229;-45
2022/06/07 00:07:22;;;;;;;8.85;6.43;;;;;;;;;;5115280;28;20201;-44
2022/06/07 00:09:49;;;;;;;10.05;7.15;;;;;;;;;;5115173;28;20205;-47
2022/06/07 00:12:17;;;;;;;8.13;6.93;;;;;;;;;;5114174;28;20198;-44
2022/06/07 00:14:45;;;;;;;9.35;6.28;;;;;;;;;;5115265;28;20569;-45
2022/06/07 00:17:12;;;;;;;7.45;6.75;;;;;;;;;;5115178;28;20278;-45
2022/06/07 00:19:40;;;;;;;10.25;6.55;;;;;;;;;;5115536;28;20298;-44
2022/06/07 00:22:08;;;;;;;9.73;6.10;;;;;;;;;;5115499;28;20202;-44
2022/06/07 00:24:35;;;;;;;7.85;7.15;;;;;;;;;;5115303;28;20194;-45
2022/06/07 00:27:03;;;;;;;9.15;8.15;;;;;;;;;;5115405;28;20310;-45
2022/06/07 00:29:30;;;;;;;9.05;8.15;;;;;;;;;;5115380;28;20266;-45
2022/06/07 00:31:58;;;;;;;10.82;8.10;;;;;;;;;;5097788;28;20202;-44
2022/06/07 00:34:25;;;;;;;11.10;8.25;;;;;;;;;;5097557;28;20222;-44
2022/06/07 00:36:52;;;;;;;8.27;7.45;;;;;;;;;;5115776;28;20233;-44
2022/06/07 00:39:19;;;;;;;8.93;7.70;;;;;;;;;;5116977;28;20202;-44
2022/06/07 00:41:46;;;;;;;8.93;7.78;;;;;;;;;;5101532;28;20240;-44
2022/06/07 00:44:26;;;;;;;8.18;7.38;;;;;;;;;;5101276;28;20217;-46
2022/06/07 00:46:59;;;;;;;8.55;7.75;;;;;;;;;;5119396;28;20198;-44
2022/06/07 00:49:31;;;;;;;8.00;7.15;;;;;;;;;;5119087;28;20637;-45
2022/06/07 00:51:58;;;;;;;13.75;7.18;;;;;;;;;;5101419;28;20239;-44
2022/06/07 00:54:27;;;;;;;8.07;6.75;;;;;;;;;;5101221;28;20202;-44
2022/06/07 00:57:02;;;;;;;10.10;7.28;;;;;;;;;;5101292;28;20646;-45
2022/06/07 00:59:34;;;;;;;8.48;6.60;;;;;;;;;;5101313;28;20567;-44
2022/06/07 01:02:02;;;;;;;8.35;7.55;;;;;;;;;;5101019;28;20202;-44
2022/06/07 01:04:29;;;;;;;10.73;7.47;;;;;;;;;;5101491;28;20202;-44
2022/06/07 01:12:34;;;;;;;8.98;7.45;;;;;;;;;;5101255;28;20200;-44
2022/06/07 01:15:03;;;;;;;6.95;6.25;;;;;;;;;;5101544;28;20534;-44
2022/06/07 01:17:31;;;;;;;7.53;6.78;;;;;;;;;;5118639;28;20294;-44
2022/06/07 01:19:58;;;;;;;8.40;7.57;;;;;;;;;;5100979;28;20263;-44
2022/06/07 01:22:27;;;;;;;10.57;7.32;;;;;;;;;;5101235;28;20210;-44
2022/06/07 01:24:54;;;;;;;8.15;7.35;;;;;;;;;;5118506;28;20213;-44
2022/06/07 01:27:21;;;;;;;11.15;7.80;;;;;;;;;;5135222;27;20532;-44
2022/06/07 01:29:48;;;;;;;8.57;6.90;;;;;;;;;;5134847;27;20202;-44
2022/06/07 01:32:18;;;;;;;11.32;7.38;;;;;;;;;;5100444;28;20201;-44
2022/06/07 01:34:46;;;;;;;11.18;7.30;;;;;;;;;;5100473;28;20533;-44
2022/06/07 01:37:17;;;;;;;7.55;6.85;;;;;;;;;;5118113;28;20221;-44
2022/06/07 01:42:30;;;;;;;10.05;7.45;;;;;;;;;;5118127;28;20202;-45
2022/06/07 01:44:58;;;;;;;10.02;7.25;;;;;;;;;;5117792;28;20640;-44
2022/06/07 01:47:27;;;;;;;8.07;7.35;;;;;;;;;;5118035;28;20202;-45
2022/06/07 01:49:58;;;;;;;13.35;7.72;;;;;;;;;;5117431;28;20187;-44
2022/06/07 01:52:28;;;;;;;10.00;8.52;;;;;;;;;;5117295;28;20225;-44
2022/06/07 01:55:00;;;;;;;8.20;7.45;;;;;;;;;;5100313;28;20198;-44
2022/06/07 01:57:32;;;;;;;9.88;7.97;;;;;;;;;;5099948;28;20646;-46
2022/06/07 02:00:04;;;;;;;10.35;7.50;;;;;;;;;;5100229;28;20595;-46
2022/06/07 02:02:39;;;;;;;8.23;7.43;;;;;;;;;;5117463;28;20610;-45
2022/06/07 02:05:07;;;;;;;7.68;6.90;;;;;;;;;;5099554;28;20244;-45
2022/06/07 02:07:36;;;;;;;9.23;7.25;;;;;;;;;;5099758;28;20206;-44
2022/06/07 02:10:07;;;;;;;8.55;7.28;;;;;;;;;;5100152;28;20182;-45
2022/06/07 02:12:34;;;;;;;9.50;7.20;;;;;;;;;;5117511;28;20201;-44
2022/06/07 02:15:03;;;;;;;7.72;6.93;;;;;;;;;;5099875;28;20194;-47
2022/06/07 02:17:30;;;;;;;15.70;7.57;;;;;;;;;;5099029;28;20249;-45
2022/06/07 02:20:21;;;;;;;7.50;6.90;;;;;;;;;;5106399;28;20638;-44
2022/06/07 02:22:48;;;;;;;10.77;7.10;;;;;;;;;;5117017;28;20233;-44
2022/06/07 02:25:15;;;;;;;10.77;7.05;;;;;;;;;;5099450;28;20215;-44
2022/06/07 02:27:42;;;;;;;9.93;7.63;;;;;;;;;;5116922;28;20638;-45
2022/06/07 02:30:11;;;;;;;8.95;7.55;;;;;;;;;;5116423;28;20202;-45
2022/06/07 02:32:39;;;;;;;11.10;7.28;;;;;;;;;;5117175;28;20209;-44
2022/06/07 02:35:07;;;;;;;13.63;6.80;;;;;;;;;;5117056;28;20209;-45
2022/06/07 02:37:35;;;;;;;7.72;6.90;;;;;;;;;;5099232;28;20218;-44
2022/06/07 02:40:04;;;;;;;8.93;7.63;;;;;;;;;;5099364;28;20193;-44
2022/06/07 02:42:31;;;;;;;8.75;7.90;;;;;;;;;;5117128;28;20294;-45
2022/06/07 02:44:58;;;;;;;8.43;6.85;;;;;;;;;;5116953;28;20631;-44
2022/06/07 02:47:25;;;;;;;8.13;6.95;;;;;;;;;;5099475;28;20220;-44
2022/06/07 02:50:02;;;;;;;11.13;7.05;;;;;;;;;;5098991;28;20194;-44
2022/06/07 02:52:32;;;;;;;7.70;6.90;;;;;;;;;;5098654;28;20190;-45
2022/06/07 02:55:07;;;;;;;9.95;6.85;;;;;;;;;;5099030;28;20194;-46
2022/06/07 02:57:36;;;;;;;11.38;7.18;;;;;;;;;;5098737;28;20658;-46
2022/06/07 03:00:11;;;;;;;9.32;6.75;;;;;;;;;;5099169;28;20178;-45
2022/06/07 03:02:39;;;;;;;12.25;6.80;;;;;;;;;;5099039;28;20550;-45
2022/06/07 03:05:10;;;;;;;9.23;6.47;;;;;;;;;;5098916;28;20226;-44
2022/06/07 03:07:40;;;;;;;7.40;6.55;;;;;;;;;;5098385;28;20643;-44
2022/06/07 03:10:08;;;;;;;7.97;7.13;;;;;;;;;;5098817;28;20642;-45
2022/06/07 03:12:37;;;;;;;9.63;7.05;;;;;;;;;;5116551;28;20254;-44
2022/06/07 03:15:11;;;;;;;10.43;7.47;;;;;;;;;;5098746;28;20220;-44
2022/06/07 03:17:38;;;;;;;8.05;7.15;;;;;;;;;;5116043;28;20225;-46
2022/06/07 03:20:08;;;;;;;16.95;6.88;;;;;;;;;;5098826;28;20266;-44
2022/06/07 03:22:37;;;;;;;13.13;7.40;;;;;;;;;;5125093;27;20194;-46
2022/06/07 03:25:05;;;;;;;8.32;7.28;;;;;;;;;;5118839;27;20201;-44
2022/06/07 03:27:35;;;;;;;9.15;7.72;;;;;;;;;;5118496;27;20225;-45
2022/06/07 03:30:07;;;;;;;8.02;7.22;;;;;;;;;;5119043;27;20235;-45
2022/06/07 03:32:35;;;;;;;8.38;7.68;;;;;;;;;;5119085;27;20277;-45
2022/06/07 03:35:03;;;;;;;11.25;8.32;;;;;;;;;;5118448;27;20694;-45
2022/06/07 03:37:34;;;;;;;10.05;7.93;;;;;;;;;;5118678;27;20214;-44
2022/06/07 03:40:01;;;;;;;8.93;8.00;;;;;;;;;;5116562;27;20284;-47
2022/06/07 03:42:29;;;;;;;11.45;8.20;;;;;;;;;;5114956;27;20197;-44
2022/06/07 03:44:58;;;;;;;10.60;8.75;;;;;;;;;;5115606;27;20263;-45
2022/06/07 03:47:26;;;;;;;10.15;9.15;;;;;;;;;;5117083;27;20197;-45
2022/06/07 03:49:54;;;;;;;16.83;9.05;;;;;;;;;;5113841;27;20235;-45
2022/06/07 03:52:25;;;;;;;10.23;8.60;;;;;;;;;;5114578;28;20190;-45
2022/06/07 03:54:52;;;;;;;10.07;9.07;;;;;;;;;;5096752;28;20645;-47
2022/06/07 03:57:22;;;;;;;8.80;8.02;;;;;;;;;;5131854;27;20514;-44
2022/06/07 03:59:55;;;;;;;10.95;8.70;;;;;;;;;;5098115;28;20186;-45
2022/06/07 04:02:22;;;;;;;9.93;8.00;;;;;;;;;;5104074;27;20257;-50
2022/06/07 04:04:49;;;;;;;11.15;8.70;;;;;;;;;;5105256;27;20584;-48
2022/06/07 04:10:05;;;;;;;11.85;8.85;;;;;;;;;;5110930;28;20226;-47
2022/06/07 04:12:42;;;;;;;10.75;9.00;;;;;;;;;;5102350;27;20688;-44
2022/06/07 04:15:10;;;;;;;10.15;9.20;;;;;;;;;;5140910;27;20227;-44
2022/06/07 04:17:37;;;;;;;10.50;9.25;;;;;;;;;;5116083;28;20546;-44
2022/06/07 04:20:24;;;;;;;10.50;9.50;;;;;;;;;;5096831;28;20665;-58
2022/06/07 04:22:54;;;;;;;10.45;9.38;;;;;;;;;;5104061;28;20716;-45
2022/06/07 04:25:21;;;;;;;10.93;9.43;;;;;;;;;;5116675;28;20221;-47
2022/06/07 04:27:49;;;;;;;9.88;9.00;;;;;;;;;;5117164;28;20285;-44
2022/06/07 04:30:18;;;;;;;13.30;9.25;;;;;;;;;;5151732;27;20239;-45
2022/06/07 04:32:49;;;;;;;9.80;8.90;;;;;;;;;;5114464;27;20241;-44
2022/06/07 04:35:24;;;;;;;10.60;9.50;;;;;;;;;;5117576;28;20531;-48
2022/06/07 04:37:56;;;;;;;11.40;9.55;;;;;;;;;;5134985;27;20274;-44
2022/06/07 04:40:29;;;;;;;9.60;8.40;;;;;;;;;;5116652;28;20227;-44
2022/06/07 04:42:57;;;;;;;9.75;8.82;;;;;;;;;;5116557;27;20239;-44
2022/06/07 04:45:28;;;;;;;9.23;8.30;;;;;;;;;;5115594;28;20543;-44
2022/06/07 04:48:09;;;;;;;9.43;8.18;;;;;;;;;;5115065;28;20229;-46
2022/06/07 04:51:21;;;;;;;9.23;8.15;;;;;;;;;;5122873;28;20218;-44
2022/06/07 04:53:59;;;;;;;9.70;8.70;;;;;;;;;;5096307;28;20321;-45
2022/06/07 04:56:32;;;;;;;9.88;7.97;;;;;;;;;;5095311;28;20295;-45
2022/06/07 04:59:02;;;;;;;9.30;8.40;;;;;;;;;;5096127;28;20309;-44
2022/06/07 05:01:35;;;;;;;9.57;8.27;;;;;;;;;;5095977;28;20222;-44
2022/06/07 05:04:07;;;;;;;9.50;7.78;;;;;;;;;;5114217;28;20294;-44
2022/06/07 05:06:39;;;;;;;7.78;7.00;;;;;;;;;;5095958;28;20325;-44
2022/06/07 05:09:25;;;;;;;9.70;6.72;;;;;;;;;;5096375;28;20218;-52
2022/06/07 05:11:58;;;;;;;9.27;7.32;;;;;;;;;;5109796;28;20217;-43
2022/06/07 05:14:29;;;;;;;8.77;7.20;;;;;;;;;;5116386;28;20225;-44
2022/06/07 05:16:57;;;;;;;7.63;6.85;;;;;;;;;;5133884;28;20268;-44
2022/06/07 05:19:29;;;;;;;7.90;6.28;;;;;;;;;;5117224;28;20217;-44
2022/06/07 05:22:03;;;;;;;6.53;5.93;;;;;;;;;;5117862;28;20318;-44
2022/06/07 05:24:35;;;;;;;8.18;5.93;;;;;;;;;;5117426;27;20186;-43
2022/06/07 05:27:04;;;;;;;6.10;5.40;;;;;;;;;;5120178;27;20272;-43
2022/06/07 05:29:51;;;;;;;8.30;4.90;;;;;;;;;;5121584;27;20200;-44
2022/06/07 05:32:42;;;;;;;5.78;4.70;;;;;;;;;;5138807;27;20221;-44
2022/06/07 05:35:14;;;;;;;6.95;4.78;;;;;;;;;;5121910;27;20242;-43
2022/06/07 05:37:47;;;;;;;4.93;4.45;;;;;;;;;;5121232;27;20201;-43
2022/06/07 05:40:22;;;;;;;6.22;5.00;;;;;;;;;;5121209;27;20192;-43
2022/06/07 05:42:51;;;;;;;6.75;4.85;;;;;;;;;;5121011;27;20209;-43
2022/06/07 05:45:39;;;;;;;7.93;4.78;;;;;;;;;;5120783;27;20190;-44
2022/06/07 05:48:16;;;;;;;7.90;4.70;;;;;;;;;;5121161;27;20189;-43
2022/06/07 05:50:50;;;;;;;4.72;4.30;;;;;;;;;;5121211;27;20516;-44
2022/06/07 05:53:21;;;;;;;7.82;4.65;;;;;;;;;;5120755;27;20234;-45
2022/06/07 05:55:48;;;;;;;4.45;4.05;;;;;;;;;;5138692;27;20225;-44
2022/06/07 05:58:17;;;;;;;4.60;4.15;;;;;;;;;;5120615;27;20220;-43
2022/06/07 06:00:44;;;;;;;6.25;4.35;;;;;;;;;;5120772;27;20220;-43
2022/06/07 06:03:11;;;;;;;8.13;3.95;;;;;;;;;;5138209;27;20672;-44
2022/06/07 06:05:46;;;;;;;3.90;3.60;;;;;;;;;;5120537;27;20229;-44
2022/06/07 06:11:10;;;;;;;4.65;3.58;;;;;;;;;;5120163;27;20190;-43
2022/06/07 06:13:41;;;;;;;6.80;3.55;;;;;;;;;;5120300;27;20189;-44
2022/06/07 06:16:14;;;;;;;5.97;3.20;;;;;;;;;;5120127;27;20262;-44
2022/06/07 06:18:46;;;;;;;9.57;3.10;;;;;;;;;;5119919;27;20232;-43
2022/06/07 06:21:17;;;;;;;5.32;3.28;;;;;;;;;;5120326;27;20186;-43
2022/06/07 06:23:45;;;;;;;6.65;3.40;;;;;;;;;;5138211;27;20197;-44
2022/06/07 06:26:15;;;;;;;9.45;3.30;;;;;;;;;;5120195;27;20197;-44
2022/06/07 06:28:43;;;;;;;6.68;3.17;;;;;;;;;;5103316;27;20208;-44
2022/06/07 06:31:12;;;;;;;11.80;3.33;;;;;;;;;;5138032;27;20205;-44
2022/06/07 06:33:46;;;;;;;8.27;2.70;;;;;;;;;;5119936;27;20204;-43
2022/06/07 06:36:17;;;;;;;13.07;3.10;;;;;;;;;;5119719;27;20196;-44
2022/06/07 06:38:45;;;;;;;11.63;3.22;;;;;;;;;;5137386;27;20663;-44
2022/06/07 06:41:14;;;;;;;12.73;2.92;;;;;;;;;;5119857;27;20202;-44
2022/06/07 06:43:42;;;;;;;17.45;3.40;;;;;;;;;;5119963;27;20248;-44
2022/06/07 06:46:42;;;;;;;16.92;4.00;;;;;;;;;;5130936;27;20212;-43
2022/06/07 06:49:12;;;;;;;11.48;3.42;;;;;;;;;;5119764;27;20208;-43
2022/06/07 06:51:42;;;;;;;12.68;3.45;;;;;;;;;;5119717;27;20185;-44
2022/06/07 06:54:13;;;;;;;16.90;3.20;;;;;;;;;;5119358;27;20193;-44
2022/06/07 06:57:09;;;;;;;15.68;3.20;;;;;;;;;;5074530;28;20223;-43
2022/06/07 06:59:37;;;;;;;10.43;3.47;;;;;;;;;;5057896;28;20213;-44
2022/06/07 07:02:04;;;;;;;11.27;3.15;;;;;;;;;;5057622;28;20682;-44
2022/06/07 07:04:44;;;;;;;7.50;2.55;;;;;;;;;;5074118;28;20206;-44
2022/06/07 07:07:11;;;;;;;6.68;2.45;;;;;;;;;;5057640;28;20210;-45
2022/06/07 07:09:40;;;;;;;6.95;2.72;;;;;;;;;;5057478;28;20210;-44
2022/06/07 07:12:10;;;;;;;5.72;2.60;;;;;;;;;;5057644;28;20214;-44
2022/06/07 07:14:42;;;;;;;4.88;2.10;;;;;;;;;;5057677;28;20203;-44
2022/06/07 07:17:15;;;;;;;2.97;2.10;;;;;;;;;;5057437;28;20223;-44
2022/06/07 07:19:43;;;;;;;4.32;2.20;;;;;;;;;;5057760;28;20227;-43
2022/06/07 07:22:12;;;;;;;2.88;2.15;;;;;;;;;;5057475;28;20207;-44
2022/06/07 07:24:42;;;;;;;5.93;2.17;;;;;;;;;;5074040;28;20191;-44
2022/06/07 07:27:12;;;;;;;4.45;2.22;;;;;;;;;;5057271;28;20218;-44
2022/06/07 07:29:41;;;;;;;4.43;2.40;;;;;;;;;;5057180;28;20298;-44
2022/06/07 07:32:13;;;;;;;5.65;2.50;;;;;;;;;;5057293;28;20192;-44
2022/06/07 07:35:00;;;;;;;6.40;2.55;;;;;;;;;;5136397;27;20193;-44
2022/06/07 07:37:33;;;;;;;6.57;2.47;;;;;;;;;;5118734;27;20217;-45
2022/06/07 07:40:09;;;;;;;7.80;2.85;;;;;;;;;;5118543;27;20268;-44
2022/06/07 07:42:36;;;;;;;5.57;2.58;;;;;;;;;;5136288;27;20201;-44
2022/06/07 07:45:09;;;;;;;3.50;2.38;;;;;;;;;;5118961;27;20272;-44
2022/06/07 07:47:39;;;;;;;5.22;2.95;;;;;;;;;;5118383;27;20629;-45
2022/06/07 07:50:06;;;;;;;6.55;3.13;;;;;;;;;;5135848;27;20197;-44
2022/06/07 07:52:33;;;;;;;6.53;2.65;;;;;;;;;;5118195;27;20250;-44
2022/06/07 07:55:07;;;;;;;5.53;2.67;;;;;;;;;;5136348;27;20249;-44
2022/06/07 07:57:35;;;;;;;5.35;2.80;;;;;;;;;;5118372;27;20545;-44
2022/06/07 08:00:03;;;;;;;5.90;2.90;;;;;;;;;;5118629;27;20266;-44
2022/06/07 08:02:39;;;;;;;5.43;2.83;;;;;;;;;;5136344;27;20185;-44
2022/06/07 08:05:18;;;;;;;6.32;3.28;;;;;;;;;;5118103;28;20263;-44
2022/06/07 08:07:45;;;;;;;7.28;3.00;;;;;;;;;;5118526;27;20205;-44
2022/06/07 08:10:25;;;;;;;5.28;3.05;;;;;;;;;;5135907;27;20186;-44
2022/06/07 08:13:00;;;;;;;6.30;2.83;;;;;;;;;;5136242;27;20186;-44
2022/06/07 08:15:31;;;;;;;4.97;3.25;;;;;;;;;;5136248;27;20212;-44
2022/06/07 08:18:01;;;;;;;4.07;2.80;;;;;;;;;;5136562;27;20217;-44
2022/06/07 08:20:32;;;;;;;3.63;2.80;;;;;;;;;;5136238;27;20181;-44
2022/06/07 08:23:00;;;;;;;5.30;2.83;;;;;;;;;;5136112;27;20185;-44
2022/06/07 08:25:27;;;;;;;4.07;3.22;;;;;;;;;;5136016;28;20201;-44
2022/06/07 08:27:54;;;;;;;3.42;2.85;;;;;;;;;;5135972;28;20205;-44
2022/06/07 08:30:21;;;;;;;4.22;2.63;;;;;;;;;;5135697;28;20634;-44
2022/06/07 08:32:48;;;;;;;5.40;3.05;;;;;;;;;;5135642;28;20631;-44
2022/06/07 08:38:04;;;;;;;4.55;2.72;;;;;;;;;;5135883;28;20213;-44
2022/06/07 08:40:35;;;;;;;4.85;2.90;;;;;;;;;;5135948;28;20194;-43
2022/06/07 08:43:11;;;;;;;4.15;3.25;;;;;;;;;;5117894;28;20181;-44
2022/06/07 08:45:40;;;;;;;9.45;2.78;;;;;;;;;;5136149;28;20197;-44
2022/06/07 08:48:26;;;;;;;7.53;3.00;;;;;;;;;;5117723;28;20811;-45
2022/06/07 08:51:14;;;;;;;4.07;2.80;;;;;;;;;;5118675;28;20186;-44
2022/06/07 08:53:45;;;;;;;4.90;3.00;;;;;;;;;;5135339;28;20185;-45
2022/06/07 08:56:16;;;;;;;5.53;2.70;;;;;;;;;;5136151;28;20198;-44
2022/06/07 08:58:49;;;;;;;4.65;3.25;;;;;;;;;;5118183;28;20222;-44
2022/06/07 09:01:23;;;;;;;8.30;3.20;;;;;;;;;;5138874;27;20197;-44
2022/06/07 09:04:03;;;;;;;3.30;2.67;;;;;;;;;;5121984;27;20181;-44
2022/06/07 09:06:41;;;;;;;5.28;2.70;;;;;;;;;;5118160;28;20236;-44
2022/06/07 09:09:10;;;;;;;3.08;2.58;;;;;;;;;;5119418;28;20186;-44
2022/06/07 09:14:34;;;;;;;5.35;3.10;;;;;;;;;;5119048;28;20230;-44
2022/06/07 09:17:05;;;;;;;5.93;3.65;;;;;;;;;;5119016;27;20194;-45
2022/06/07 09:19:32;;;;;;;3.97;2.90;;;;;;;;;;5118848;28;20222;-45
2022/06/07 09:22:02;;;;;;;8.45;3.17;;;;;;;;;;5118831;28;20512;-44
2022/06/07 09:24:34;;;;;;;4.75;3.05;;;;;;;;;;5118271;28;20197;-43
2022/06/07 09:27:05;;;;;;;6.47;3.25;;;;;;;;;;5117643;28;20607;-44
2022/06/07 09:29:38;;;;;;;5.50;3.20;;;;;;;;;;5118620;28;20569;-44
2022/06/07 09:32:14;;;;;;;5.25;3.28;;;;;;;;;;5118781;28;20500;-44
2022/06/07 09:35:26;;;;;;;6.25;3.17;;;;;;;;;;5118537;28;20185;-44
2022/06/07 09:37:56;;;;;;;3.35;3.05;;;;;;;;;;5118176;27;20244;-44
2022/06/07 09:40:42;;;;;;;6.35;3.40;;;;;;;;;;5118244;28;20619;-44
2022/06/07 09:43:12;;;;;;;5.35;3.47;;;;;;;;;;5118335;28;20182;-44
2022/06/07 09:45:51;;;;;;;4.18;3.22;;;;;;;;;;5118855;28;20205;-44
2022/06/07 09:48:30;;;;;;;5.90;3.67;;;;;;;;;;5118067;28;20197;-44
2022/06/07 09:51:07;;;;;;;7.40;3.53;;;;;;;;;;5118359;28;20201;-44
2022/06/07 09:53:41;;;;;;;5.57;4.03;;;;;;;;;;5117851;27;20250;-45
2022/06/07 09:56:12;;;;;;;5.53;3.22;;;;;;;;;;5118203;28;20190;-44
2022/06/07 09:59:01;;;;;;;9.73;3.25;;;;;;;;;;5118263;28;20214;-45
2022/06/07 10:01:43;;;;;;;11.32;3.67;;;;;;;;;;5118088;28;20221;-48
2022/06/07 10:04:19;;;;;;;3.30;2.92;;;;;;;;;;5118039;28;20269;-44
2022/06/07 10:06:52;;;;;;;4.68;3.20;;;;;;;;;;5117025;28;20696;-46
2022/06/07 10:09:26;;;;;;;3.72;3.17;;;;;;;;;;5117976;28;20190;-45
2022/06/07 10:12:18;;;;;;;3.95;3.28;;;;;;;;;;5117247;28;20200;-44
2022/06/07 10:14:55;;;;;;;3.92;2.83;;;;;;;;;;5118196;28;20190;-44
2022/06/07 10:17:54;;;;;;;4.07;3.17;;;;;;;;;;5117500;28;20190;-44
2022/06/07 10:20:49;;;;;;;7.18;3.45;;;;;;;;;;5116603;28;20637;-44
2022/06/07 10:23:34;;;;;;;3.67;3.33;;;;;;;;;;5118042;28;20202;-44
2022/06/07 10:26:04;;;;;;;3.45;3.15;;;;;;;;;;5117752;28;20197;-45
2022/06/07 10:28:50;;;;;;;3.80;3.40;;;;;;;;;;5117192;28;20639;-44
2022/06/07 10:31:23;;;;;;;5.00;3.15;;;;;;;;;;5117321;28;20186;-44
2022/06/07 10:33:50;;;;;;;5.22;3.15;;;;;;;;;;5117790;28;20247;-44
2022/06/07 10:36:42;;;;;;;7.07;3.38;;;;;;;;;;5117494;28;20233;-44
2022/06/07 10:39:31;;;;;;;4.10;3.33;;;;;;;;;;5116862;28;20685;-44
2022/06/07 10:42:26;;;;;;;3.33;3.00;;;;;;;;;;5116921;28;20213;-44
2022/06/07 10:44:53;;;;;;;3.63;3.33;;;;;;;;;;5116514;28;20194;-45
2022/06/07 10:47:24;;;;;;;4.55;3.13;;;;;;;;;;5116844;28;20201;-44
2022/06/07 10:50:04;;;;;;;5.78;3.20;;;;;;;;;;5116096;28;20561;-44
2022/06/07 10:52:34;;;;;;;7.22;3.53;;;;;;;;;;5116593;28;20259;-44
2022/06/07 10:55:22;;;;;;;4.50;3.13;;;;;;;;;;5116179;28;20194;-44
2022/06/07 10:58:31;;;;;;;5.45;3.30;;;;;;;;;;5116641;27;20189;-44
2022/06/07 11:01:03;;;;;;;4.53;2.83;;;;;;;;;;5108809;28;20266;-44
2022/06/07 11:10:07;;;;;;;4.13;3.08;;;;;;;;;;5020500;28;20201;-44
2022/06/07 11:12:47;;;;;;;4.43;3.40;;;;;;;;;;5018089;28;20664;-44
2022/06/07 11:15:34;;;;;;;4.50;2.33;;;;;;;;;;5034594;28;20204;-44
2022/06/07 11:18:13;;;;;;;3.65;2.83;;;;;;;;;;5017966;28;20188;-44
2022/06/07 11:21:02;;;;;;;3.47;2.42;;;;;;;;;;5034572;28;20209;-44
2022/06/07 11:23:34;;;;;;;5.00;2.50;;;;;;;;;;5033460;28;20247;-44
2022/06/07 11:26:03;;;;;;;5.75;2.97;;;;;;;;;;5034490;28;20197;-44
2022/06/07 11:28:44;;;;;;;8.00;2.60;;;;;;;;;;5034267;28;20216;-44
2022/06/07 11:31:25;;;;;;;5.90;2.72;;;;;;;;;;5033968;28;20201;-44
2022/06/07 11:33:52;;;;;;;4.57;2.30;;;;;;;;;;5033972;28;20204;-44
2022/06/07 11:36:25;;;;;;;2.92;2.58;;;;;;;;;;5033840;28;20216;-44
2022/06/07 11:38:55;;;;;;;4.25;2.80;;;;;;;;;;5034379;28;20242;-44
2022/06/07 11:41:37;;;;;;;7.13;4.10;;;;;;;;;;5079861;28;20276;-43
2022/06/07 11:44:10;;;;;;;6.00;3.10;;;;;;;;;;5095482;28;20524;-44
2022/06/07 11:46:49;;;;;;;5.80;3.28;;;;;;;;;;5096058;28;20191;-44
2022/06/07 11:49:20;;;;;;;5.63;3.38;;;;;;;;;;5095783;28;20190;-44
2022/06/07 11:52:02;;;;;;;6.28;2.80;;;;;;;;;;5095368;28;20191;-44
2022/06/07 11:54:33;;;;;;;4.00;2.90;;;;;;;;;;5095160;28;20599;-45
2022/06/07 11:57:03;;;;;;;4.47;2.92;;;;;;;;;;5095656;28;20210;-44
2022/06/07 11:59:34;;;;;;;4.47;3.15;;;;;;;;;;5095560;28;20277;-47
2022/06/07 12:02:01;;;;;;;4.60;2.83;;;;;;;;;;5095567;28;20183;-44
2022/06/07 12:04:36;;;;;;;2.70;2.50;;;;;;;;;;5095383;28;20236;-45
2022/06/07 12:07:37;;;;;;;4.32;2.88;;;;;;;;;;5095647;28;20178;-44
2022/06/07 12:10:16;;;;;;;4.32;3.00;;;;;;;;;;5095495;28;20260;-44
2022/06/07 12:12:56;;;;;;;5.45;3.28;;;;;;;;;;5093319;28;20534;-45
2022/06/07 12:15:27;;;;;;;3.92;2.60;;;;;;;;;;5090803;28;20213;-48
2022/06/07 12:17:58;;;;;;;4.53;2.85;;;;;;;;;;5110652;28;20628;-47
2022/06/07 12:20:33;;;;;;;3.92;3.05;;;;;;;;;;5094698;28;20662;-47
2022/06/07 12:23:25;;;;;;;5.72;3.05;;;;;;;;;;5094611;28;20251;-46
2022/06/07 12:26:00;;;;;;;7.53;2.97;;;;;;;;;;5083570;28;20205;-49
2022/06/07 12:28:34;;;;;;;4.18;2.80;;;;;;;;;;5084846;28;20231;-47
2022/06/07 12:31:21;;;;;;;6.70;2.90;;;;;;;;;;5093531;28;20227;-49
2022/06/07 12:33:56;;;;;;;3.63;3.28;;;;;;;;;;5109502;28;20280;-48
2022/06/07 12:36:28;;;;;;;5.47;2.85;;;;;;;;;;5097855;28;20279;-47
2022/06/07 12:38:58;;;;;;;6.25;3.35;;;;;;;;;;5113042;28;20230;-50
2022/06/07 12:41:26;;;;;;;4.82;3.22;;;;;;;;;;5108709;28;20229;-51
2022/06/07 12:43:56;;;;;;;3.75;3.35;;;;;;;;;;5097756;28;20655;-48
2022/06/07 12:46:28;;;;;;;4.70;3.30;;;;;;;;;;5098244;28;20223;-52
2022/06/07 12:48:58;;;;;;;5.00;3.00;;;;;;;;;;5097972;28;20237;-47
2022/06/07 12:51:34;;;;;;;4.03;3.17;;;;;;;;;;5098402;28;20686;-54
2022/06/07 12:54:04;;;;;;;3.97;3.30;;;;;;;;;;5098050;28;20241;-50
2022/06/07 12:56:39;;;;;;;9.85;3.53;;;;;;;;;;5097435;28;20602;-49
2022/06/07 12:59:10;;;;;;;5.55;3.30;;;;;;;;;;5096892;28;20272;-54
2022/06/07 13:01:41;;;;;;;6.28;3.30;;;;;;;;;;5097394;28;20238;-50
2022/06/07 13:04:25;;;;;;;5.32;3.15;;;;;;;;;;5097040;28;20305;-48
2022/06/07 13:07:17;;;;;;;4.90;2.97;;;;;;;;;;5116178;28;20245;-47
2022/06/07 13:10:06;;;;;;;6.70;3.72;;;;;;;;;;5117729;28;20608;-53
2022/06/07 13:12:42;;;;;;;3.63;3.05;;;;;;;;;;5117488;27;20254;-51
2022/06/07 13:15:24;;;;;;;6.10;3.05;;;;;;;;;;5117479;28;20229;-52
2022/06/07 13:18:04;;;;;;;3.92;3.50;;;;;;;;;;5117513;28;20336;-50
2022/06/07 13:20:37;;;;;;;4.45;2.97;;;;;;;;;;5117995;28;20245;-51
2022/06/07 13:23:25;;;;;;;4.90;3.50;;;;;;;;;;5116369;28;20321;-48
2022/06/07 13:25:56;;;;;;;5.60;3.72;;;;;;;;;;5112702;27;20303;-50
2022/06/07 13:28:24;;;;;;;5.50;3.50;;;;;;;;;;5095896;28;20663;-49
2022/06/07 13:30:54;;;;;;;9.40;3.40;;;;;;;;;;5096057;28;20694;-48
2022/06/07 13:33:30;;;;;;;3.60;3.30;;;;;;;;;;5096000;28;20248;-51
2022/06/07 13:36:05;;;;;;;8.00;3.55;;;;;;;;;;5096897;28;20304;-53
2022/06/07 13:38:41;;;;;;;3.60;3.30;;;;;;;;;;5108731;27;20252;-47
2022/06/07 13:41:18;;;;;;;3.60;3.30;;;;;;;;;;5117252;28;20225;-47
2022/06/07 13:44:10;;;;;;;6.80;3.50;;;;;;;;;;5117312;28;20268;-47
2022/06/07 13:46:56;;;;;;;4.80;3.30;;;;;;;;;;5116073;28;20283;-49
2022/06/07 13:55:23;;;;;;;6.75;3.10;;;;;;;;;;5116494;27;20226;-47
2022/06/07 13:57:50;;;;;;;4.05;3.22;;;;;;;;;;5116404;27;20225;-52
2022/06/07 14:00:17;;;;;;;3.30;3.00;;;;;;;;;;5117041;27;20677;-47
2022/06/07 14:02:46;;;;;;;3.47;2.80;;;;;;;;;;5117196;28;20236;-48
2022/06/07 14:05:15;;;;;;;6.78;2.85;;;;;;;;;;5115714;28;20257;-51
2022/06/07 14:07:42;;;;;;;4.38;2.50;;;;;;;;;;5108866;27;20222;-51
2022/06/07 14:10:15;;;;;;;4.30;2.78;;;;;;;;;;5102187;28;20713;-48
2022/06/07 14:12:42;;;;;;;3.08;2.78;;;;;;;;;;5113229;28;20226;-48
2022/06/07 14:15:09;;;;;;;2.40;2.20;;;;;;;;;;5116762;28;20233;-48
2022/06/07 14:17:37;;;;;;;8.07;2.50;;;;;;;;;;5116684;28;20226;-49
2022/06/07 14:20:05;;;;;;;3.42;2.55;;;;;;;;;;5116425;27;20237;-50
2022/06/07 14:22:33;;;;;;;3.17;2.65;;;;;;;;;;5116360;28;20236;-49
2022/06/07 14:25:02;;;;;;;3.00;2.30;;;;;;;;;;5115807;27;20229;-52
2022/06/07 14:27:31;;;;;;;3.03;2.53;;;;;;;;;;5116060;28;20228;-48
2022/06/07 14:29:58;;;;;;;4.53;2.53;;;;;;;;;;5115714;28;20236;-51
2022/06/07 14:32:28;;;;;;;12.55;2.65;;;;;;;;;;5113535;28;20233;-49
2022/06/07 14:34:56;;;;;;;5.78;2.60;;;;;;;;;;5114734;28;20229;-48
2022/06/07 14:37:25;;;;;;;6.25;2.28;;;;;;;;;;5114964;28;20287;-49
2022/06/07 14:39:53;;;;;;;2.45;2.25;;;;;;;;;;5115155;28;20256;-48
2022/06/07 14:42:20;;;;;;;3.03;2.50;;;;;;;;;;5115592;28;20229;-48
2022/06/07 14:44:47;;;;;;;3.45;2.60;;;;;;;;;;5116495;28;20237;-48
2022/06/07 14:47:19;;;;;;;4.47;2.53;;;;;;;;;;5116121;28;20528;-49
2022/06/07 14:49:48;;;;;;;4.78;2.47;;;;;;;;;;5116292;28;20237;-48
2022/06/07 14:52:16;;;;;;;8.05;3.47;;;;;;;;;;5114666;28;20256;-50
2022/06/07 14:54:44;;;;;;;6.03;2.63;;;;;;;;;;5115810;28;20229;-48
2022/06/07 14:57:22;;;;;;;5.55;2.95;;;;;;;;;;5115756;28;20278;-48
2022/06/07 14:59:49;;;;;;;5.43;3.22;;;;;;;;;;5115402;28;20233;-56
2022/06/07 15:02:31;;;;;;;3.53;2.80;;;;;;;;;;5102762;27;20238;-48
2022/06/07 15:05:13;;;;;;;5.03;2.85;;;;;;;;;;5117096;27;20319;-52
2022/06/07 15:07:47;;;;;;;4.10;3.28;;;;;;;;;;5116898;27;20341;-49
2022/06/07 15:10:17;;;;;;;5.38;3.03;;;;;;;;;;5110933;28;20244;-49
2022/06/07 15:12:45;;;;;;;4.45;3.72;;;;;;;;;;5114148;28;20230;-48
2022/06/07 15:15:12;;;;;;;2.70;2.50;;;;;;;;;;5114274;27;20646;-51
2022/06/07 15:17:42;;;;;;;3.22;2.92;;;;;;;;;;5113920;28;20214;-45
2022/06/07 15:20:21;;;;;;;3.40;3.10;;;;;;;;;;5113875;28;20640;-46
2022/06/07 15:22:49;;;;;;;6.88;2.83;;;;;;;;;;5111319;28;20659;-45
2022/06/07 15:25:18;;;;;;;4.60;2.42;;;;;;;;;;5113023;28;20686;-47
2022/06/07 15:27:46;;;;;;;3.35;2.83;;;;;;;;;;5113273;28;20674;-48
2022/06/07 15:30:15;;;;;;;3.75;2.83;;;;;;;;;;5113519;28;20226;-47
2022/06/07 15:32:43;;;;;;;3.33;2.78;;;;;;;;;;5111447;28;20592;-46
2022/06/07 15:35:21;;;;;;;4.60;2.60;;;;;;;;;;5114563;28;20221;-46
2022/06/07 15:37:49;;;;;;;7.95;3.22;;;;;;;;;;5115426;28;20233;-45
2022/06/07 15:40:19;;;;;;;5.78;2.95;;;;;;;;;;5113706;28;20543;-45
2022/06/07 15:42:48;;;;;;;9.05;4.05;;;;;;;;;;5114910;28;20229;-46
2022/06/07 15:45:28;;;;;;;3.03;2.72;;;;;;;;;;5115425;28;20229;-45
2022/06/07 15:48:14;;;;;;;8.68;3.20;;;;;;;;;;5115084;28;20225;-44